sensor_id;sensor_type;location;lat;lon;timestamp;P1;durP1;ratioP1;P2;durP2;ratioP2
13147;SDS011;6639;50.956;4.242;2022-11-23T00:00:32;8.80;;;2.80;;
13147;SDS011;6639;50.956;4.242;2022-11-23T00:02:59;7.63;;;2.92;;
13147;SDS011;6639;50.956;4.242;2022-11-23T00:05:26;4.78;;;2.35;;
13147;SDS011;6639;50.956;4.242;2022-11-23T00:07:55;8.13;;;2.30;;
13147;SDS011;6639;50.956;4.242;2022-11-23T00:10:22;8.48;;;2.70;;
13147;SDS011;6639;50.956;4.242;2022-11-23T00:12:49;9.13;;;2.80;;
13147;SDS011;6639;50.956;4.242;2022-11-23T00:15:16;7.50;;;2.35;;
13147;SDS011;6639;50.956;4.242;2022-11-23T00:17:44;11.73;;;2.90;;
13147;SDS011;6639;50.956;4.242;2022-11-23T00:20:12;8.68;;;2.70;;
13147;SDS011;6639;50.956;4.242;2022-11-23T00:22:39;12.70;;;2.05;;
13147;SDS011;6639;50.956;4.242;2022-11-23T00:25:06;11.73;;;3.28;;
13147;SDS011;6639;50.956;4.242;2022-11-23T00:27:33;9.45;;;2.78;;
13147;SDS011;6639;50.956;4.242;2022-11-23T00:30:00;7.93;;;1.90;;
13147;SDS011;6639;50.956;4.242;2022-11-23T00:32:27;9.50;;;2.78;;
13147;SDS011;6639;50.956;4.242;2022-11-23T00:34:55;11.98;;;2.70;;
13147;SDS011;6639;50.956;4.242;2022-11-23T00:37:22;10.77;;;2.60;;
13147;SDS011;6639;50.956;4.242;2022-11-23T00:39:49;6.78;;;2.72;;
13147;SDS011;6639;50.956;4.242;2022-11-23T00:42:16;9.95;;;2.75;;
13147;SDS011;6639;50.956;4.242;2022-11-23T00:44:43;6.88;;;2.28;;
13147;SDS011;6639;50.956;4.242;2022-11-23T00:47:10;7.45;;;2.47;;
13147;SDS011;6639;50.956;4.242;2022-11-23T00:49:36;6.70;;;2.03;;
13147;SDS011;6639;50.956;4.242;2022-11-23T00:52:05;10.93;;;2.60;;
13147;SDS011;6639;50.956;4.242;2022-11-23T00:54:31;11.05;;;2.88;;
13147;SDS011;6639;50.956;4.242;2022-11-23T00:56:58;12.85;;;3.10;;
13147;SDS011;6639;50.956;4.242;2022-11-23T00:59:25;10.93;;;3.33;;
13147;SDS011;6639;50.956;4.242;2022-11-23T01:01:53;10.55;;;2.78;;
13147;SDS011;6639;50.956;4.242;2022-11-23T01:04:20;5.40;;;2.25;;
13147;SDS011;6639;50.956;4.242;2022-11-23T01:06:47;10.68;;;2.78;;
13147;SDS011;6639;50.956;4.242;2022-11-23T01:09:16;7.03;;;2.70;;
13147;SDS011;6639;50.956;4.242;2022-11-23T01:11:44;10.25;;;2.75;;
13147;SDS011;6639;50.956;4.242;2022-11-23T01:14:11;12.27;;;2.80;;
13147;SDS011;6639;50.956;4.242;2022-11-23T01:16:38;7.45;;;2.55;;
13147;SDS011;6639;50.956;4.242;2022-11-23T01:19:07;9.93;;;2.35;;
13147;SDS011;6639;50.956;4.242;2022-11-23T01:21:35;7.00;;;2.13;;
13147;SDS011;6639;50.956;4.242;2022-11-23T01:24:03;7.05;;;2.35;;
13147;SDS011;6639;50.956;4.242;2022-11-23T01:26:32;10.32;;;2.15;;
13147;SDS011;6639;50.956;4.242;2022-11-23T01:28:59;7.38;;;2.13;;
13147;SDS011;6639;50.956;4.242;2022-11-23T01:31:26;7.63;;;2.33;;
13147;SDS011;6639;50.956;4.242;2022-11-23T01:33:54;11.18;;;2.85;;
13147;SDS011;6639;50.956;4.242;2022-11-23T01:36:22;8.63;;;2.67;;
13147;SDS011;6639;50.956;4.242;2022-11-23T01:38:50;7.25;;;2.50;;
13147;SDS011;6639;50.956;4.242;2022-11-23T01:41:18;6.07;;;2.38;;
13147;SDS011;6639;50.956;4.242;2022-11-23T01:43:48;10.25;;;2.90;;
13147;SDS011;6639;50.956;4.242;2022-11-23T01:46:15;6.97;;;2.25;;
13147;SDS011;6639;50.956;4.242;2022-11-23T01:48:43;10.05;;;2.70;;
13147;SDS011;6639;50.956;4.242;2022-11-23T01:51:14;8.57;;;2.63;;
13147;SDS011;6639;50.956;4.242;2022-11-23T01:53:44;6.75;;;2.97;;
13147;SDS011;6639;50.956;4.242;2022-11-23T01:56:13;6.47;;;2.50;;
13147;SDS011;6639;50.956;4.242;2022-11-23T01:58:43;13.82;;;3.63;;
13147;SDS011;6639;50.956;4.242;2022-11-23T02:01:15;7.22;;;2.55;;
13147;SDS011;6639;50.956;4.242;2022-11-23T02:03:42;8.68;;;3.42;;
13147;SDS011;6639;50.956;4.242;2022-11-23T02:06:13;8.40;;;2.28;;
13147;SDS011;6639;50.956;4.242;2022-11-23T02:08:42;10.98;;;3.83;;
13147;SDS011;6639;50.956;4.242;2022-11-23T02:11:09;12.52;;;3.22;;
13147;SDS011;6639;50.956;4.242;2022-11-23T02:13:39;13.05;;;3.10;;
13147;SDS011;6639;50.956;4.242;2022-11-23T02:16:07;8.90;;;2.35;;
13147;SDS011;6639;50.956;4.242;2022-11-23T02:18:36;8.63;;;2.75;;
13147;SDS011;6639;50.956;4.242;2022-11-23T02:21:06;10.15;;;2.42;;
13147;SDS011;6639;50.956;4.242;2022-11-23T02:23:33;9.82;;;3.15;;
13147;SDS011;6639;50.956;4.242;2022-11-23T02:26:10;11.85;;;3.05;;
13147;SDS011;6639;50.956;4.242;2022-11-23T02:28:41;7.93;;;2.42;;
13147;SDS011;6639;50.956;4.242;2022-11-23T02:31:10;12.43;;;3.47;;
13147;SDS011;6639;50.956;4.242;2022-11-23T02:33:37;11.05;;;3.00;;
13147;SDS011;6639;50.956;4.242;2022-11-23T02:38:50;11.30;;;2.67;;
13147;SDS011;6639;50.956;4.242;2022-11-23T02:41:20;4.47;;;1.90;;
13147;SDS011;6639;50.956;4.242;2022-11-23T02:43:46;8.73;;;2.78;;
13147;SDS011;6639;50.956;4.242;2022-11-23T02:46:16;10.70;;;2.90;;
13147;SDS011;6639;50.956;4.242;2022-11-23T02:48:43;7.70;;;2.75;;
13147;SDS011;6639;50.956;4.242;2022-11-23T02:51:10;6.65;;;2.38;;
13147;SDS011;6639;50.956;4.242;2022-11-23T02:53:37;10.55;;;2.83;;
13147;SDS011;6639;50.956;4.242;2022-11-23T02:56:04;9.15;;;2.92;;
13147;SDS011;6639;50.956;4.242;2022-11-23T02:58:32;11.18;;;2.88;;
13147;SDS011;6639;50.956;4.242;2022-11-23T03:00:59;9.25;;;2.88;;
13147;SDS011;6639;50.956;4.242;2022-11-23T03:03:26;7.40;;;2.60;;
13147;SDS011;6639;50.956;4.242;2022-11-23T03:05:53;9.75;;;3.22;;
13147;SDS011;6639;50.956;4.242;2022-11-23T03:08:20;6.45;;;2.35;;
13147;SDS011;6639;50.956;4.242;2022-11-23T03:10:47;7.38;;;2.22;;
13147;SDS011;6639;50.956;4.242;2022-11-23T03:13:13;11.88;;;2.80;;
13147;SDS011;6639;50.956;4.242;2022-11-23T03:15:42;11.02;;;2.90;;
13147;SDS011;6639;50.956;4.242;2022-11-23T03:18:09;11.98;;;2.50;;
13147;SDS011;6639;50.956;4.242;2022-11-23T03:20:36;7.82;;;2.85;;
13147;SDS011;6639;50.956;4.242;2022-11-23T03:23:03;13.10;;;2.95;;
13147;SDS011;6639;50.956;4.242;2022-11-23T03:25:29;9.18;;;2.50;;
13147;SDS011;6639;50.956;4.242;2022-11-23T03:27:56;10.25;;;3.15;;
13147;SDS011;6639;50.956;4.242;2022-11-23T03:30:23;9.63;;;2.95;;
13147;SDS011;6639;50.956;4.242;2022-11-23T03:32:51;11.27;;;2.90;;
13147;SDS011;6639;50.956;4.242;2022-11-23T03:35:18;9.93;;;3.28;;
13147;SDS011;6639;50.956;4.242;2022-11-23T03:37:45;10.30;;;3.33;;
13147;SDS011;6639;50.956;4.242;2022-11-23T03:40:12;9.73;;;2.90;;
13147;SDS011;6639;50.956;4.242;2022-11-23T03:42:39;11.00;;;3.05;;
13147;SDS011;6639;50.956;4.242;2022-11-23T03:45:06;10.70;;;2.88;;
13147;SDS011;6639;50.956;4.242;2022-11-23T03:47:35;9.88;;;2.78;;
13147;SDS011;6639;50.956;4.242;2022-11-23T03:50:03;10.93;;;2.50;;
13147;SDS011;6639;50.956;4.242;2022-11-23T03:52:31;10.10;;;3.08;;
13147;SDS011;6639;50.956;4.242;2022-11-23T03:54:57;12.32;;;2.72;;
13147;SDS011;6639;50.956;4.242;2022-11-23T03:57:24;9.95;;;2.63;;
13147;SDS011;6639;50.956;4.242;2022-11-23T03:59:51;10.18;;;2.50;;
13147;SDS011;6639;50.956;4.242;2022-11-23T04:02:18;9.43;;;2.83;;
13147;SDS011;6639;50.956;4.242;2022-11-23T04:04:45;9.80;;;2.75;;
13147;SDS011;6639;50.956;4.242;2022-11-23T04:07:13;12.55;;;3.20;;
13147;SDS011;6639;50.956;4.242;2022-11-23T04:09:40;6.93;;;2.33;;
13147;SDS011;6639;50.956;4.242;2022-11-23T04:12:07;8.32;;;2.78;;
13147;SDS011;6639;50.956;4.242;2022-11-23T04:14:35;10.10;;;2.92;;
13147;SDS011;6639;50.956;4.242;2022-11-23T04:17:02;12.63;;;2.80;;
13147;SDS011;6639;50.956;4.242;2022-11-23T04:19:29;10.27;;;3.10;;
13147;SDS011;6639;50.956;4.242;2022-11-23T04:21:56;13.63;;;3.53;;
13147;SDS011;6639;50.956;4.242;2022-11-23T04:24:25;10.88;;;3.00;;
13147;SDS011;6639;50.956;4.242;2022-11-23T04:26:52;11.73;;;2.80;;
13147;SDS011;6639;50.956;4.242;2022-11-23T04:29:18;8.98;;;3.03;;
13147;SDS011;6639;50.956;4.242;2022-11-23T04:31:45;10.15;;;2.60;;
13147;SDS011;6639;50.956;4.242;2022-11-23T04:34:12;10.77;;;2.50;;
13147;SDS011;6639;50.956;4.242;2022-11-23T04:36:39;9.93;;;2.75;;
13147;SDS011;6639;50.956;4.242;2022-11-23T04:39:06;11.05;;;2.35;;
13147;SDS011;6639;50.956;4.242;2022-11-23T04:41:34;8.35;;;2.47;;
13147;SDS011;6639;50.956;4.242;2022-11-23T04:44:01;15.23;;;3.03;;
13147;SDS011;6639;50.956;4.242;2022-11-23T04:46:28;11.00;;;2.70;;
13147;SDS011;6639;50.956;4.242;2022-11-23T04:48:55;9.95;;;2.65;;
13147;SDS011;6639;50.956;4.242;2022-11-23T04:51:22;8.20;;;2.78;;
13147;SDS011;6639;50.956;4.242;2022-11-23T04:53:49;14.75;;;3.28;;
13147;SDS011;6639;50.956;4.242;2022-11-23T04:56:16;13.02;;;3.20;;
13147;SDS011;6639;50.956;4.242;2022-11-23T04:58:44;7.43;;;2.80;;
13147;SDS011;6639;50.956;4.242;2022-11-23T05:01:11;11.13;;;3.20;;
13147;SDS011;6639;50.956;4.242;2022-11-23T05:03:38;12.43;;;3.42;;
13147;SDS011;6639;50.956;4.242;2022-11-23T05:06:05;16.05;;;3.95;;
13147;SDS011;6639;50.956;4.242;2022-11-23T05:08:32;8.30;;;2.80;;
13147;SDS011;6639;50.956;4.242;2022-11-23T05:10:59;9.32;;;2.88;;
13147;SDS011;6639;50.956;4.242;2022-11-23T05:13:26;9.73;;;2.85;;
13147;SDS011;6639;50.956;4.242;2022-11-23T05:15:54;10.43;;;3.42;;
13147;SDS011;6639;50.956;4.242;2022-11-23T05:18:21;10.30;;;3.20;;
13147;SDS011;6639;50.956;4.242;2022-11-23T05:20:48;12.60;;;2.67;;
13147;SDS011;6639;50.956;4.242;2022-11-23T05:23:15;13.70;;;3.35;;
13147;SDS011;6639;50.956;4.242;2022-11-23T05:25:42;11.15;;;3.83;;
13147;SDS011;6639;50.956;4.242;2022-11-23T05:28:09;7.72;;;2.80;;
13147;SDS011;6639;50.956;4.242;2022-11-23T05:30:40;10.75;;;3.13;;
13147;SDS011;6639;50.956;4.242;2022-11-23T05:33:09;12.27;;;2.95;;
13147;SDS011;6639;50.956;4.242;2022-11-23T05:35:36;11.63;;;3.08;;
13147;SDS011;6639;50.956;4.242;2022-11-23T05:38:03;10.45;;;3.08;;
13147;SDS011;6639;50.956;4.242;2022-11-23T05:40:30;15.25;;;3.28;;
13147;SDS011;6639;50.956;4.242;2022-11-23T05:42:57;9.63;;;3.50;;
13147;SDS011;6639;50.956;4.242;2022-11-23T05:45:25;10.70;;;3.25;;
13147;SDS011;6639;50.956;4.242;2022-11-23T05:47:53;13.20;;;3.55;;
13147;SDS011;6639;50.956;4.242;2022-11-23T05:50:24;8.95;;;2.65;;
13147;SDS011;6639;50.956;4.242;2022-11-23T05:52:54;12.80;;;3.10;;
13147;SDS011;6639;50.956;4.242;2022-11-23T05:55:21;10.63;;;3.05;;
13147;SDS011;6639;50.956;4.242;2022-11-23T05:57:48;8.70;;;2.85;;
13147;SDS011;6639;50.956;4.242;2022-11-23T06:00:15;15.90;;;3.45;;
13147;SDS011;6639;50.956;4.242;2022-11-23T06:02:43;13.52;;;3.17;;
13147;SDS011;6639;50.956;4.242;2022-11-23T06:05:09;12.90;;;3.40;;
13147;SDS011;6639;50.956;4.242;2022-11-23T06:07:38;15.43;;;3.45;;
13147;SDS011;6639;50.956;4.242;2022-11-23T06:10:05;11.43;;;2.72;;
13147;SDS011;6639;50.956;4.242;2022-11-23T06:12:33;12.80;;;2.88;;
13147;SDS011;6639;50.956;4.242;2022-11-23T06:14:59;9.65;;;3.20;;
13147;SDS011;6639;50.956;4.242;2022-11-23T06:17:26;8.27;;;2.97;;
13147;SDS011;6639;50.956;4.242;2022-11-23T06:19:53;8.35;;;2.67;;
13147;SDS011;6639;50.956;4.242;2022-11-23T06:22:20;11.00;;;2.97;;
13147;SDS011;6639;50.956;4.242;2022-11-23T06:24:48;13.07;;;3.03;;
13147;SDS011;6639;50.956;4.242;2022-11-23T06:27:15;14.73;;;3.65;;
13147;SDS011;6639;50.956;4.242;2022-11-23T06:29:42;8.60;;;2.70;;
13147;SDS011;6639;50.956;4.242;2022-11-23T06:32:09;12.52;;;2.75;;
13147;SDS011;6639;50.956;4.242;2022-11-23T06:34:35;10.32;;;2.72;;
13147;SDS011;6639;50.956;4.242;2022-11-23T06:37:02;10.48;;;3.28;;
13147;SDS011;6639;50.956;4.242;2022-11-23T06:39:29;8.32;;;2.75;;
13147;SDS011;6639;50.956;4.242;2022-11-23T06:41:57;11.68;;;2.25;;
13147;SDS011;6639;50.956;4.242;2022-11-23T06:44:24;7.85;;;2.78;;
13147;SDS011;6639;50.956;4.242;2022-11-23T06:46:51;9.32;;;2.92;;
13147;SDS011;6639;50.956;4.242;2022-11-23T06:49:18;15.05;;;3.38;;
13147;SDS011;6639;50.956;4.242;2022-11-23T06:51:45;6.80;;;2.60;;
13147;SDS011;6639;50.956;4.242;2022-11-23T06:54:12;13.13;;;3.60;;
13147;SDS011;6639;50.956;4.242;2022-11-23T06:56:39;9.32;;;2.85;;
13147;SDS011;6639;50.956;4.242;2022-11-23T06:59:07;9.48;;;2.95;;
13147;SDS011;6639;50.956;4.242;2022-11-23T07:01:34;12.52;;;3.17;;
13147;SDS011;6639;50.956;4.242;2022-11-23T07:04:01;10.40;;;2.50;;
13147;SDS011;6639;50.956;4.242;2022-11-23T07:06:28;9.45;;;2.58;;
13147;SDS011;6639;50.956;4.242;2022-11-23T07:08:55;12.52;;;2.95;;
13147;SDS011;6639;50.956;4.242;2022-11-23T07:11:22;12.65;;;3.33;;
13147;SDS011;6639;50.956;4.242;2022-11-23T07:13:49;11.63;;;3.28;;
13147;SDS011;6639;50.956;4.242;2022-11-23T07:16:17;11.15;;;3.38;;
13147;SDS011;6639;50.956;4.242;2022-11-23T07:18:43;13.85;;;3.90;;
13147;SDS011;6639;50.956;4.242;2022-11-23T07:21:10;15.68;;;4.63;;
13147;SDS011;6639;50.956;4.242;2022-11-23T07:23:37;12.73;;;3.67;;
13147;SDS011;6639;50.956;4.242;2022-11-23T07:26:05;14.52;;;3.22;;
13147;SDS011;6639;50.956;4.242;2022-11-23T07:28:33;13.07;;;2.88;;
13147;SDS011;6639;50.956;4.242;2022-11-23T07:31:00;11.25;;;2.90;;
13147;SDS011;6639;50.956;4.242;2022-11-23T07:33:28;8.05;;;2.85;;
13147;SDS011;6639;50.956;4.242;2022-11-23T07:35:55;8.90;;;3.08;;
13147;SDS011;6639;50.956;4.242;2022-11-23T07:38:25;13.15;;;2.90;;
13147;SDS011;6639;50.956;4.242;2022-11-23T07:40:52;9.48;;;3.05;;
13147;SDS011;6639;50.956;4.242;2022-11-23T07:43:19;10.13;;;3.00;;
13147;SDS011;6639;50.956;4.242;2022-11-23T07:45:46;15.52;;;2.88;;
13147;SDS011;6639;50.956;4.242;2022-11-23T07:48:12;12.25;;;3.08;;
13147;SDS011;6639;50.956;4.242;2022-11-23T07:50:41;11.07;;;3.03;;
13147;SDS011;6639;50.956;4.242;2022-11-23T07:53:08;10.43;;;2.75;;
13147;SDS011;6639;50.956;4.242;2022-11-23T07:55:35;13.32;;;3.58;;
13147;SDS011;6639;50.956;4.242;2022-11-23T07:58:02;7.90;;;2.60;;
13147;SDS011;6639;50.956;4.242;2022-11-23T08:00:30;9.02;;;2.95;;
13147;SDS011;6639;50.956;4.242;2022-11-23T08:02:57;11.13;;;2.60;;
13147;SDS011;6639;50.956;4.242;2022-11-23T08:05:24;10.85;;;3.25;;
13147;SDS011;6639;50.956;4.242;2022-11-23T08:07:57;11.25;;;3.20;;
13147;SDS011;6639;50.956;4.242;2022-11-23T08:10:25;13.35;;;3.53;;
13147;SDS011;6639;50.956;4.242;2022-11-23T08:12:52;11.05;;;2.72;;
13147;SDS011;6639;50.956;4.242;2022-11-23T08:15:21;11.70;;;3.78;;
13147;SDS011;6639;50.956;4.242;2022-11-23T08:17:48;11.13;;;3.15;;
13147;SDS011;6639;50.956;4.242;2022-11-23T08:20:20;13.82;;;3.15;;
13147;SDS011;6639;50.956;4.242;2022-11-23T08:22:46;10.30;;;3.42;;
13147;SDS011;6639;50.956;4.242;2022-11-23T08:25:15;13.02;;;3.95;;
13147;SDS011;6639;50.956;4.242;2022-11-23T08:27:42;12.80;;;3.92;;
13147;SDS011;6639;50.956;4.242;2022-11-23T08:30:09;9.00;;;3.00;;
13147;SDS011;6639;50.956;4.242;2022-11-23T08:32:36;8.65;;;2.63;;
13147;SDS011;6639;50.956;4.242;2022-11-23T08:35:03;8.38;;;3.40;;
13147;SDS011;6639;50.956;4.242;2022-11-23T08:37:30;8.35;;;2.97;;
13147;SDS011;6639;50.956;4.242;2022-11-23T08:39:57;10.13;;;3.28;;
13147;SDS011;6639;50.956;4.242;2022-11-23T08:42:25;9.50;;;3.13;;
13147;SDS011;6639;50.956;4.242;2022-11-23T08:44:52;8.10;;;3.08;;
13147;SDS011;6639;50.956;4.242;2022-11-23T08:47:19;10.15;;;3.03;;
13147;SDS011;6639;50.956;4.242;2022-11-23T08:49:46;10.32;;;2.90;;
13147;SDS011;6639;50.956;4.242;2022-11-23T08:52:13;14.15;;;3.92;;
13147;SDS011;6639;50.956;4.242;2022-11-23T08:54:40;8.38;;;2.75;;
13147;SDS011;6639;50.956;4.242;2022-11-23T08:57:06;7.53;;;3.40;;
13147;SDS011;6639;50.956;4.242;2022-11-23T08:59:35;11.38;;;3.60;;
13147;SDS011;6639;50.956;4.242;2022-11-23T09:02:02;9.35;;;3.42;;
13147;SDS011;6639;50.956;4.242;2022-11-23T09:04:29;9.40;;;3.08;;
13147;SDS011;6639;50.956;4.242;2022-11-23T09:06:56;10.20;;;3.20;;
13147;SDS011;6639;50.956;4.242;2022-11-23T09:09:22;7.07;;;2.83;;
13147;SDS011;6639;50.956;4.242;2022-11-23T09:11:50;8.02;;;2.78;;
13147;SDS011;6639;50.956;4.242;2022-11-23T09:14:17;12.35;;;3.17;;
13147;SDS011;6639;50.956;4.242;2022-11-23T09:16:47;11.23;;;3.10;;
13147;SDS011;6639;50.956;4.242;2022-11-23T09:19:14;6.13;;;3.03;;
13147;SDS011;6639;50.956;4.242;2022-11-23T09:21:41;5.13;;;2.88;;
13147;SDS011;6639;50.956;4.242;2022-11-23T09:24:08;7.15;;;2.40;;
13147;SDS011;6639;50.956;4.242;2022-11-23T09:26:36;8.20;;;2.83;;
13147;SDS011;6639;50.956;4.242;2022-11-23T09:29:03;6.60;;;2.28;;
13147;SDS011;6639;50.956;4.242;2022-11-23T09:31:30;7.05;;;2.63;;
13147;SDS011;6639;50.956;4.242;2022-11-23T09:33:59;7.50;;;2.30;;
13147;SDS011;6639;50.956;4.242;2022-11-23T09:36:26;7.35;;;3.33;;
13147;SDS011;6639;50.956;4.242;2022-11-23T09:38:53;5.35;;;2.50;;
13147;SDS011;6639;50.956;4.242;2022-11-23T09:41:24;5.40;;;2.10;;
13147;SDS011;6639;50.956;4.242;2022-11-23T09:44:06;6.03;;;2.30;;
13147;SDS011;6639;50.956;4.242;2022-11-23T09:46:44;9.05;;;3.08;;
13147;SDS011;6639;50.956;4.242;2022-11-23T09:49:20;5.57;;;2.30;;
13147;SDS011;6639;50.956;4.242;2022-11-23T09:51:52;6.40;;;1.95;;
13147;SDS011;6639;50.956;4.242;2022-11-23T09:54:23;7.82;;;2.50;;
13147;SDS011;6639;50.956;4.242;2022-11-23T09:56:53;7.25;;;2.92;;
13147;SDS011;6639;50.956;4.242;2022-11-23T09:59:25;4.15;;;2.40;;
13147;SDS011;6639;50.956;4.242;2022-11-23T10:02:04;6.18;;;2.10;;
13147;SDS011;6639;50.956;4.242;2022-11-23T10:04:35;8.70;;;2.40;;
13147;SDS011;6639;50.956;4.242;2022-11-23T10:07:07;10.30;;;2.55;;
13147;SDS011;6639;50.956;4.242;2022-11-23T10:09:45;8.10;;;2.72;;
13147;SDS011;6639;50.956;4.242;2022-11-23T10:12:31;6.63;;;2.28;;
13147;SDS011;6639;50.956;4.242;2022-11-23T10:15:10;5.03;;;1.92;;
13147;SDS011;6639;50.956;4.242;2022-11-23T10:17:54;7.95;;;1.98;;
13147;SDS011;6639;50.956;4.242;2022-11-23T10:20:52;4.38;;;1.80;;
13147;SDS011;6639;50.956;4.242;2022-11-23T10:23:38;5.50;;;2.20;;
13147;SDS011;6639;50.956;4.242;2022-11-23T10:26:16;7.97;;;2.58;;
13147;SDS011;6639;50.956;4.242;2022-11-23T10:28:44;5.22;;;2.30;;
13147;SDS011;6639;50.956;4.242;2022-11-23T10:31:12;6.90;;;2.20;;
13147;SDS011;6639;50.956;4.242;2022-11-23T10:33:44;4.80;;;1.85;;
13147;SDS011;6639;50.956;4.242;2022-11-23T10:36:18;3.47;;;1.80;;
13147;SDS011;6639;50.956;4.242;2022-11-23T10:38:46;3.85;;;2.05;;
13147;SDS011;6639;50.956;4.242;2022-11-23T10:41:16;4.20;;;1.88;;
13147;SDS011;6639;50.956;4.242;2022-11-23T10:43:44;4.95;;;2.15;;
13147;SDS011;6639;50.956;4.242;2022-11-23T10:46:22;5.97;;;1.98;;
13147;SDS011;6639;50.956;4.242;2022-11-23T10:48:55;5.20;;;1.55;;
13147;SDS011;6639;50.956;4.242;2022-11-23T10:51:35;5.55;;;2.08;;
13147;SDS011;6639;50.956;4.242;2022-11-23T10:54:04;4.05;;;1.73;;
13147;SDS011;6639;50.956;4.242;2022-11-23T10:56:44;3.20;;;1.90;;
13147;SDS011;6639;50.956;4.242;2022-11-23T10:59:19;5.03;;;1.60;;
13147;SDS011;6639;50.956;4.242;2022-11-23T11:01:58;7.10;;;1.92;;
13147;SDS011;6639;50.956;4.242;2022-11-23T11:04:26;4.80;;;1.80;;
13147;SDS011;6639;50.956;4.242;2022-11-23T11:07:08;6.07;;;1.67;;
13147;SDS011;6639;50.956;4.242;2022-11-23T11:09:47;6.85;;;2.35;;
13147;SDS011;6639;50.956;4.242;2022-11-23T11:12:16;5.45;;;1.60;;
13147;SDS011;6639;50.956;4.242;2022-11-23T11:14:53;3.35;;;1.80;;
13147;SDS011;6639;50.956;4.242;2022-11-23T11:17:25;3.03;;;1.67;;
13147;SDS011;6639;50.956;4.242;2022-11-23T11:19:53;3.20;;;1.50;;
13147;SDS011;6639;50.956;4.242;2022-11-23T11:22:26;7.50;;;2.13;;
13147;SDS011;6639;50.956;4.242;2022-11-23T11:24:57;6.20;;;2.25;;
13147;SDS011;6639;50.956;4.242;2022-11-23T11:27:25;4.65;;;2.20;;
13147;SDS011;6639;50.956;4.242;2022-11-23T11:29:55;6.53;;;1.80;;
13147;SDS011;6639;50.956;4.242;2022-11-23T11:32:25;5.80;;;1.77;;
13147;SDS011;6639;50.956;4.242;2022-11-23T11:34:59;6.25;;;1.77;;
13147;SDS011;6639;50.956;4.242;2022-11-23T11:37:35;6.97;;;2.17;;
13147;SDS011;6639;50.956;4.242;2022-11-23T11:40:06;4.07;;;1.73;;
13147;SDS011;6639;50.956;4.242;2022-11-23T11:42:38;5.45;;;1.70;;
13147;SDS011;6639;50.956;4.242;2022-11-23T11:45:11;5.82;;;2.17;;
13147;SDS011;6639;50.956;4.242;2022-11-23T11:47:44;6.22;;;1.75;;
13147;SDS011;6639;50.956;4.242;2022-11-23T11:50:17;4.78;;;1.73;;
13147;SDS011;6639;50.956;4.242;2022-11-23T11:52:49;5.10;;;2.08;;
13147;SDS011;6639;50.956;4.242;2022-11-23T11:55:21;5.63;;;1.90;;
13147;SDS011;6639;50.956;4.242;2022-11-23T11:57:54;6.32;;;2.00;;
13147;SDS011;6639;50.956;4.242;2022-11-23T12:00:24;6.43;;;2.00;;
13147;SDS011;6639;50.956;4.242;2022-11-23T12:02:56;2.88;;;1.48;;
13147;SDS011;6639;50.956;4.242;2022-11-23T12:05:34;5.15;;;1.80;;
13147;SDS011;6639;50.956;4.242;2022-11-23T12:08:07;3.67;;;1.50;;
13147;SDS011;6639;50.956;4.242;2022-11-23T12:10:39;4.47;;;1.42;;
13147;SDS011;6639;50.956;4.242;2022-11-23T12:13:10;4.15;;;1.73;;
13147;SDS011;6639;50.956;4.242;2022-11-23T12:15:41;3.95;;;1.67;;
13147;SDS011;6639;50.956;4.242;2022-11-23T12:18:16;3.45;;;1.38;;
13147;SDS011;6639;50.956;4.242;2022-11-23T12:21:04;4.57;;;1.60;;
13147;SDS011;6639;50.956;4.242;2022-11-23T12:23:43;4.78;;;1.90;;
13147;SDS011;6639;50.956;4.242;2022-11-23T12:26:19;5.97;;;1.33;;
13147;SDS011;6639;50.956;4.242;2022-11-23T12:28:57;3.65;;;1.42;;
13147;SDS011;6639;50.956;4.242;2022-11-23T12:31:38;4.05;;;1.48;;
13147;SDS011;6639;50.956;4.242;2022-11-23T12:34:15;3.20;;;1.25;;
13147;SDS011;6639;50.956;4.242;2022-11-23T12:37:03;4.00;;;2.05;;
13147;SDS011;6639;50.956;4.242;2022-11-23T12:39:51;4.80;;;2.50;;
13147;SDS011;6639;50.956;4.242;2022-11-23T12:42:30;6.10;;;2.38;;
13147;SDS011;6639;50.956;4.242;2022-11-23T12:45:05;4.60;;;1.27;;
13147;SDS011;6639;50.956;4.242;2022-11-23T12:47:51;2.88;;;1.40;;
13147;SDS011;6639;50.956;4.242;2022-11-23T12:50:26;8.25;;;1.80;;
13147;SDS011;6639;50.956;4.242;2022-11-23T12:53:08;5.35;;;2.13;;
13147;SDS011;6639;50.956;4.242;2022-11-23T12:55:54;3.63;;;1.77;;
13147;SDS011;6639;50.956;4.242;2022-11-23T12:58:28;4.57;;;1.80;;
13147;SDS011;6639;50.956;4.242;2022-11-23T13:00:56;3.40;;;1.48;;
13147;SDS011;6639;50.956;4.242;2022-11-23T13:09:28;1.40;;;1.20;;
13147;SDS011;6639;50.956;4.242;2022-11-23T13:12:20;5.30;;;1.67;;
13147;SDS011;6639;50.956;4.242;2022-11-23T13:15:09;4.30;;;1.58;;
13147;SDS011;6639;50.956;4.242;2022-11-23T13:17:49;3.72;;;1.50;;
13147;SDS011;6639;50.956;4.242;2022-11-23T13:20:27;2.47;;;1.20;;
13147;SDS011;6639;50.956;4.242;2022-11-23T13:23:10;4.80;;;1.25;;
13147;SDS011;6639;50.956;4.242;2022-11-23T13:25:37;3.60;;;1.40;;
13147;SDS011;6639;50.956;4.242;2022-11-23T13:28:25;5.10;;;1.30;;
13147;SDS011;6639;50.956;4.242;2022-11-23T13:31:17;2.78;;;1.40;;
13147;SDS011;6639;50.956;4.242;2022-11-23T13:33:49;3.55;;;1.15;;
13147;SDS011;6639;50.956;4.242;2022-11-23T13:36:36;2.95;;;1.20;;
13147;SDS011;6639;50.956;4.242;2022-11-23T13:42:23;2.45;;;1.13;;
13147;SDS011;6639;50.956;4.242;2022-11-23T13:48:01;3.53;;;1.50;;
13147;SDS011;6639;50.956;4.242;2022-11-23T13:50:30;3.35;;;1.30;;
13147;SDS011;6639;50.956;4.242;2022-11-23T13:52:58;3.97;;;1.50;;
13147;SDS011;6639;50.956;4.242;2022-11-23T13:55:28;4.63;;;1.45;;
13147;SDS011;6639;50.956;4.242;2022-11-23T14:01:05;2.42;;;1.60;;
13147;SDS011;6639;50.956;4.242;2022-11-23T14:03:45;1.70;;;0.98;;
13147;SDS011;6639;50.956;4.242;2022-11-23T14:06:16;2.92;;;1.48;;
13147;SDS011;6639;50.956;4.242;2022-11-23T14:08:50;2.72;;;1.30;;
13147;SDS011;6639;50.956;4.242;2022-11-23T14:11:20;3.47;;;1.40;;
13147;SDS011;6639;50.956;4.242;2022-11-23T14:13:50;1.35;;;1.25;;
13147;SDS011;6639;50.956;4.242;2022-11-23T14:16:23;1.40;;;1.27;;
13147;SDS011;6639;50.956;4.242;2022-11-23T14:19:04;2.05;;;1.38;;
13147;SDS011;6639;50.956;4.242;2022-11-23T14:21:41;1.50;;;1.25;;
13147;SDS011;6639;50.956;4.242;2022-11-23T14:24:22;2.60;;;1.55;;
13147;SDS011;6639;50.956;4.242;2022-11-23T14:27:00;2.78;;;1.40;;
13147;SDS011;6639;50.956;4.242;2022-11-23T14:29:48;1.92;;;1.50;;
13147;SDS011;6639;50.956;4.242;2022-11-23T14:32:31;5.43;;;1.55;;
13147;SDS011;6639;50.956;4.242;2022-11-23T14:35:12;2.72;;;1.60;;
13147;SDS011;6639;50.956;4.242;2022-11-23T14:37:50;3.85;;;1.98;;
13147;SDS011;6639;50.956;4.242;2022-11-23T14:40:34;3.38;;;1.85;;
13147;SDS011;6639;50.956;4.242;2022-11-23T14:43:15;3.75;;;2.28;;
13147;SDS011;6639;50.956;4.242;2022-11-23T14:45:45;5.88;;;2.90;;
13147;SDS011;6639;50.956;4.242;2022-11-23T14:48:21;2.55;;;1.95;;
13147;SDS011;6639;50.956;4.242;2022-11-23T14:50:53;3.22;;;1.80;;
13147;SDS011;6639;50.956;4.242;2022-11-23T14:53:22;2.72;;;1.90;;
13147;SDS011;6639;50.956;4.242;2022-11-23T14:55:52;6.30;;;1.95;;
13147;SDS011;6639;50.956;4.242;2022-11-23T14:58:20;3.45;;;1.80;;
13147;SDS011;6639;50.956;4.242;2022-11-23T15:00:49;2.97;;;2.20;;
13147;SDS011;6639;50.956;4.242;2022-11-23T15:03:19;2.40;;;2.00;;
13147;SDS011;6639;50.956;4.242;2022-11-23T15:05:51;2.35;;;1.83;;
13147;SDS011;6639;50.956;4.242;2022-11-23T15:08:22;2.28;;;2.05;;
13147;SDS011;6639;50.956;4.242;2022-11-23T15:10:56;2.45;;;1.75;;
13147;SDS011;6639;50.956;4.242;2022-11-23T15:13:29;3.15;;;1.90;;
13147;SDS011;6639;50.956;4.242;2022-11-23T15:15:57;4.78;;;1.90;;
13147;SDS011;6639;50.956;4.242;2022-11-23T15:18:30;2.72;;;1.88;;
13147;SDS011;6639;50.956;4.242;2022-11-23T15:20:59;2.65;;;1.90;;
13147;SDS011;6639;50.956;4.242;2022-11-23T15:23:34;4.00;;;1.90;;
13147;SDS011;6639;50.956;4.242;2022-11-23T15:26:04;1.52;;;1.42;;
13147;SDS011;6639;50.956;4.242;2022-11-23T15:28:37;4.85;;;2.08;;
13147;SDS011;6639;50.956;4.242;2022-11-23T15:31:15;3.13;;;2.00;;
13147;SDS011;6639;50.956;4.242;2022-11-23T15:33:54;2.05;;;1.90;;